createdAt,value
2018-02-09T00:00:41.166Z,29.45
2018-02-09T00:03:10.986Z,26.60
2018-02-09T00:05:40.898Z,33.17
2018-02-09T00:08:10.615Z,31.33
2018-02-09T00:10:42.575Z,28.62
2018-02-09T00:13:12.324Z,30.05
2018-02-09T00:15:42.083Z,28.67
2018-02-09T00:18:12.057Z,29.52
2018-02-09T00:20:41.880Z,31.08
2018-02-09T00:23:12.310Z,33.42
2018-02-09T00:25:42.767Z,32.50
2018-02-09T00:28:12.596Z,29.77
2018-02-09T00:30:42.350Z,30.85
2018-02-09T00:33:12.073Z,28.40
2018-02-09T00:35:41.773Z,30.95
2018-02-09T00:38:11.528Z,37.72
2018-02-09T00:40:41.295Z,33.60
2018-02-09T00:43:11.084Z,28.98
2018-02-09T00:45:40.793Z,32.28
2018-02-09T00:48:10.564Z,32.13
2018-02-09T00:50:40.281Z,31.40
2018-02-09T00:53:10.250Z,30.75
2018-02-09T00:55:40.713Z,28.85
2018-02-09T00:58:10.425Z,31.67
2018-02-09T01:00:40.234Z,31.33
2018-02-09T01:03:09.914Z,29.75
2018-02-09T01:05:40.480Z,32.47
2018-02-09T01:08:10.357Z,30.15
2018-02-09T01:10:40.080Z,29.75
2018-02-09T01:13:09.784Z,26.70
2018-02-09T01:15:39.583Z,32.63
2018-02-09T01:18:09.371Z,28.15
2018-02-09T01:20:39.148Z,32.47
2018-02-09T01:23:09.010Z,30.17
2018-02-09T01:25:39.569Z,30.05
2018-02-09T01:28:09.459Z,32.00
2018-02-09T01:30:40.078Z,27.90
2018-02-09T01:33:09.832Z,27.83
2018-02-09T01:35:39.552Z,28.00
2018-02-09T01:38:09.284Z,33.17
2018-02-09T01:40:39.153Z,28.83
2018-02-09T01:43:08.949Z,29.87
2018-02-09T01:45:39.505Z,30.25
2018-02-09T01:48:09.272Z,33.17
2018-02-09T01:50:39.015Z,31.50
2018-02-09T01:53:09.598Z,30.65
2018-02-09T01:55:39.332Z,33.17
2018-02-09T01:58:09.103Z,32.25
2018-02-09T02:00:38.879Z,35.97
2018-02-09T02:03:08.654Z,33.90
2018-02-09T02:05:38.450Z,31.40
2018-02-09T02:08:08.337Z,34.25
2018-02-09T02:10:38.058Z,30.98
2018-02-09T02:13:07.831Z,30.55
2018-02-09T02:15:37.701Z,33.53
2018-02-09T02:18:07.426Z,35.17
2018-02-09T02:20:37.179Z,31.05
2018-02-09T02:23:07.043Z,30.58
2018-02-09T02:25:36.804Z,36.90
2018-02-09T02:28:06.558Z,33.45
2018-02-09T02:30:36.348Z,28.17
2018-02-09T02:33:06.210Z,30.17
2018-02-09T02:35:36.739Z,34.70
2018-02-09T02:38:06.607Z,35.22
2018-02-09T02:40:36.446Z,30.45
2018-02-09T02:43:06.266Z,31.62
2018-02-09T02:45:36.151Z,31.25
2018-02-09T02:48:06.020Z,31.27
2018-02-09T02:50:38.298Z,28.50
2018-02-09T02:53:08.132Z,30.25
2018-02-09T02:55:37.881Z,30.90
2018-02-09T02:58:07.595Z,33.63
2018-02-09T03:00:37.400Z,31.00
2018-02-09T03:03:07.180Z,35.33
2018-02-09T03:05:36.924Z,29.02
2018-02-09T03:08:06.645Z,29.05
2018-02-09T03:10:37.138Z,29.42
2018-02-09T03:13:06.911Z,32.15
2018-02-09T03:15:36.721Z,32.90
2018-02-09T03:18:06.474Z,29.60
2018-02-09T03:20:36.200Z,32.22
2018-02-09T03:23:06.151Z,28.65
2018-02-09T03:25:35.885Z,35.08
2018-02-09T03:28:05.558Z,30.42
2018-02-09T03:30:35.304Z,30.50
2018-02-09T03:33:05.006Z,31.85
2018-02-09T03:35:34.825Z,30.83
2018-02-09T03:38:05.388Z,30.50
2018-02-09T03:40:35.140Z,32.70
2018-02-09T03:43:04.823Z,35.20
2018-02-09T03:45:34.554Z,28.65
2018-02-09T03:48:04.320Z,31.42
2018-02-09T03:50:34.155Z,29.75
2018-02-09T03:53:03.877Z,28.75
2018-02-09T03:55:34.515Z,31.25
2018-02-09T03:58:04.228Z,30.40
2018-02-09T04:00:34.031Z,25.73
2018-02-09T04:03:03.870Z,27.45
2018-02-09T04:05:33.585Z,27.83
2018-02-09T04:08:03.285Z,31.15
2018-02-09T04:10:33.080Z,28.10
2018-02-09T04:13:02.830Z,28.02
2018-02-09T04:15:32.667Z,31.92
2018-02-09T04:18:02.448Z,30.35
2018-02-09T04:20:32.240Z,30.90
2018-02-09T04:23:02.244Z,34.58
2018-02-09T04:25:32.800Z,32.30
2018-02-09T04:28:02.474Z,31.55
2018-02-09T04:30:32.300Z,31.17
2018-02-09T04:33:01.993Z,28.33
2018-02-09T04:35:31.734Z,29.95
2018-02-09T04:38:01.554Z,32.20
2018-02-09T04:40:31.336Z,31.87
2018-02-09T04:43:01.851Z,32.13
2018-02-09T04:45:31.690Z,29.35
2018-02-09T04:48:01.475Z,28.00
2018-02-09T04:50:32.279Z,31.12
2018-02-09T04:53:02.012Z,31.30
2018-02-09T04:55:31.779Z,29.02
2018-02-09T04:58:01.563Z,29.98
2018-02-09T05:00:31.556Z,29.08
2018-02-09T05:03:01.380Z,26.08
2018-02-09T05:05:31.212Z,30.60
2018-02-09T05:08:01.242Z,29.05
2018-02-09T05:10:31.411Z,28.55
2018-02-09T05:13:01.246Z,29.83
2018-02-09T05:15:31.891Z,32.22
2018-02-09T05:18:01.860Z,29.70
2018-02-09T05:20:31.627Z,30.73
2018-02-09T05:23:01.515Z,33.08
2018-02-09T05:25:31.280Z,29.02
2018-02-09T05:28:01.135Z,31.80
2018-02-09T05:30:31.715Z,32.63
2018-02-09T05:33:01.602Z,31.45
2018-02-09T05:35:31.413Z,30.05
2018-02-09T05:38:01.401Z,29.48
2018-02-09T05:40:32.955Z,31.58
2018-02-09T05:43:02.743Z,27.25
2018-02-09T05:45:32.691Z,31.17
2018-02-09T05:48:02.752Z,28.55
2018-02-09T05:50:32.666Z,29.40
2018-02-09T05:53:02.555Z,29.17
2018-02-09T05:55:32.337Z,30.62
2018-02-09T05:58:02.307Z,29.52
2018-02-09T06:00:32.368Z,30.10
2018-02-09T06:03:02.336Z,29.90
2018-02-09T06:05:34.922Z,29.90
2018-02-09T06:08:04.774Z,28.98
2018-02-09T06:10:45.528Z,30.80
2018-02-09T06:13:15.363Z,29.52
2018-02-09T06:15:45.948Z,27.35
2018-02-09T06:18:15.946Z,29.10
2018-02-09T06:20:45.911Z,29.73
2018-02-09T06:23:15.616Z,31.33
2018-02-09T06:25:45.367Z,30.55
2018-02-09T06:28:15.235Z,26.77
2018-02-09T06:30:45.003Z,29.85
2018-02-09T06:33:14.787Z,28.52
2018-02-09T06:35:45.319Z,26.48
2018-02-09T06:38:15.803Z,28.05
2018-02-09T06:40:45.562Z,29.85
2018-02-09T06:43:15.402Z,30.17
2018-02-09T06:45:45.110Z,27.27
2018-02-09T06:48:14.908Z,30.95
2018-02-09T06:50:44.830Z,31.92
2018-02-09T06:53:14.595Z,26.40
2018-02-09T06:55:44.371Z,29.55
2018-02-09T06:58:14.148Z,28.50
2018-02-09T07:00:43.918Z,28.85
2018-02-09T07:03:13.689Z,28.15
2018-02-09T07:05:43.432Z,29.35
2018-02-09T07:08:14.129Z,31.27
2018-02-09T07:10:43.956Z,30.23
2018-02-09T07:13:14.388Z,30.12
2018-02-09T07:15:44.152Z,27.87
2018-02-09T07:18:13.960Z,30.75
2018-02-09T07:20:44.607Z,30.73
2018-02-09T07:23:14.457Z,28.62
2018-02-09T07:25:44.724Z,30.17
2018-02-09T07:28:15.288Z,27.98
2018-02-09T07:30:45.396Z,29.63
2018-02-09T07:33:15.150Z,32.63
2018-02-09T07:35:45.975Z,27.87
2018-02-09T07:38:15.758Z,31.20
2018-02-09T07:40:49.651Z,29.08
2018-02-09T07:43:19.614Z,29.00
2018-02-09T07:45:49.422Z,31.27
2018-02-09T07:48:19.295Z,28.15
2018-02-09T07:50:49.125Z,30.40
2018-02-09T07:53:18.983Z,27.30
2018-02-09T07:55:50.222Z,28.65
2018-02-09T07:58:20.016Z,29.77
2018-02-09T08:00:57.701Z,27.17
2018-02-09T08:03:28.514Z,32.28
2018-02-09T08:05:58.705Z,31.27
2018-02-09T08:08:28.473Z,31.15
2018-02-09T08:10:58.304Z,29.20
2018-02-09T08:13:28.067Z,32.00
2018-02-09T08:15:57.932Z,30.62
2018-02-09T08:18:27.747Z,30.33
2018-02-09T08:20:57.587Z,31.27
2018-02-09T08:23:27.601Z,33.30
2018-02-09T08:25:57.497Z,32.10
2018-02-09T08:28:27.551Z,29.83
2018-02-09T08:30:57.394Z,31.08
2018-02-09T08:33:27.230Z,30.05
2018-02-09T08:35:57.045Z,31.52
2018-02-09T08:38:26.935Z,31.90
2018-02-09T08:40:56.809Z,32.03
2018-02-09T08:43:26.789Z,31.00
2018-02-09T08:45:56.618Z,31.42
2018-02-09T08:48:26.478Z,29.30
2018-02-09T08:50:56.296Z,32.25
2018-02-09T08:53:26.140Z,31.95
2018-02-09T08:55:56.044Z,32.03
2018-02-09T08:58:25.880Z,32.03
2018-02-09T09:00:55.820Z,31.30
2018-02-09T09:03:25.691Z,33.03
2018-02-09T09:05:55.534Z,33.50
2018-02-09T09:08:26.083Z,30.62
2018-02-09T09:10:56.185Z,29.77
2018-02-09T09:13:26.816Z,32.75
2018-02-09T09:15:58.511Z,32.97
2018-02-09T09:18:31.303Z,31.95
2018-02-09T09:21:01.138Z,31.55
2018-02-09T09:23:30.910Z,33.88
2018-02-09T09:26:00.743Z,32.92
2018-02-09T09:28:30.642Z,33.17
2018-02-09T09:31:00.459Z,33.78
2018-02-09T09:33:30.382Z,31.52
2018-02-09T09:36:00.280Z,33.10
2018-02-09T09:38:30.054Z,33.20
2018-02-09T09:41:00.076Z,32.78
2018-02-09T09:43:30.659Z,34.22
2018-02-09T09:46:00.475Z,33.40
2018-02-09T09:48:30.255Z,34.42
2018-02-09T09:51:00.055Z,33.17
2018-02-09T09:53:30.681Z,33.20
2018-02-09T09:56:01.128Z,34.63
2018-02-09T09:58:31.059Z,33.13
2018-02-09T10:01:01.481Z,34.30
2018-02-09T10:03:31.499Z,34.30
2018-02-09T10:06:01.582Z,33.58
2018-02-09T10:08:31.367Z,30.88
2018-02-09T10:11:01.819Z,35.85
2018-02-09T10:13:31.858Z,35.00
2018-02-09T10:16:01.782Z,34.42
2018-02-09T10:18:31.719Z,33.78
2018-02-09T10:21:01.527Z,33.10
2018-02-09T10:23:31.347Z,32.95
2018-02-09T10:26:01.145Z,33.25
2018-02-09T10:28:31.147Z,33.88
2018-02-09T10:31:01.047Z,34.05
2018-02-09T10:33:30.864Z,32.75
2018-02-09T10:36:00.633Z,32.72
2018-02-09T10:38:30.610Z,33.00
2018-02-09T10:41:01.141Z,34.47
2018-02-09T10:43:31.050Z,35.40
2018-02-09T10:46:01.627Z,34.97
2018-02-09T10:48:32.323Z,31.37
2018-02-09T10:51:02.030Z,33.00
2018-02-09T10:53:31.879Z,35.08
2018-02-09T10:56:01.657Z,36.47
2018-02-09T10:58:31.566Z,35.95
2018-02-09T11:01:01.318Z,34.50
2018-02-09T11:03:31.954Z,34.70
2018-02-09T11:06:03.517Z,35.10
2018-02-09T11:08:34.042Z,35.80
2018-02-09T11:11:07.801Z,35.50
2018-02-09T11:13:37.588Z,36.65
2018-02-09T11:16:07.540Z,35.90
2018-02-09T11:18:37.602Z,34.80
2018-02-09T11:21:07.419Z,35.55
2018-02-09T11:23:37.383Z,37.80
2018-02-09T11:26:07.204Z,36.85
2018-02-09T11:28:37.120Z,37.08
2018-02-09T11:31:06.964Z,37.55
2018-02-09T11:33:37.012Z,38.65
2018-02-09T11:36:06.732Z,38.63
2018-02-09T11:38:36.665Z,36.47
2018-02-09T11:41:06.444Z,36.65
2018-02-09T11:43:36.290Z,38.47
2018-02-09T11:46:06.054Z,37.08
2018-02-09T11:48:36.050Z,38.47
2018-02-09T11:51:05.886Z,37.42
2018-02-09T11:53:35.684Z,38.05
2018-02-09T11:56:06.167Z,37.90
2018-02-09T11:58:36.942Z,37.67
2018-02-09T12:01:06.823Z,36.90
2018-02-09T12:03:36.640Z,37.25
2018-02-09T12:06:06.482Z,37.60
2018-02-09T12:08:36.348Z,37.90
2018-02-09T12:11:06.272Z,38.33
2018-02-09T12:13:36.096Z,37.40
2018-02-09T12:16:05.969Z,37.58
2018-02-09T12:18:36.700Z,35.17
2018-02-09T12:21:06.528Z,37.80
2018-02-09T12:23:36.400Z,36.95
2018-02-09T12:26:07.126Z,38.08
2018-02-09T12:28:36.823Z,37.75
2018-02-09T12:31:07.481Z,36.35
2018-02-09T12:33:38.380Z,37.88
2018-02-09T12:36:08.165Z,37.70
2018-02-09T12:38:37.997Z,37.65
2018-02-09T12:41:07.825Z,38.20
2018-02-09T12:43:38.456Z,36.22
2018-02-09T12:46:09.048Z,37.53
2018-02-09T12:48:40.254Z,38.67
2018-02-09T12:51:10.038Z,35.45
2018-02-09T12:53:39.924Z,37.55
2018-02-09T12:56:09.968Z,36.92
2018-02-09T12:58:40.740Z,36.42
2018-02-09T13:01:10.507Z,34.17
2018-02-09T13:03:40.622Z,34.08
2018-02-09T13:06:10.612Z,34.35
2018-02-09T13:08:40.587Z,32.47
2018-02-09T13:11:10.370Z,33.67
2018-02-09T13:13:40.250Z,32.88
2018-02-09T13:16:10.037Z,33.40
2018-02-09T13:18:58.394Z,32.65
2018-02-09T13:21:28.314Z,36.35
2018-02-09T13:24:29.159Z,32.40
2018-02-09T13:26:58.996Z,34.70
2018-02-09T13:29:28.834Z,34.40
2018-02-09T13:32:01.282Z,34.15
2018-02-09T13:34:32.762Z,32.95
2018-02-09T13:37:21.931Z,33.10
2018-02-09T13:39:51.752Z,33.40
2018-02-09T13:42:21.660Z,33.33
2018-02-09T13:44:51.454Z,32.58
2018-02-09T13:47:22.216Z,32.80
2018-02-09T13:49:52.004Z,32.28
2018-02-09T13:52:22.680Z,32.75
2018-02-09T13:54:52.533Z,31.83
2018-02-09T13:57:22.400Z,32.00
2018-02-09T13:59:52.141Z,33.85
2018-02-09T14:02:22.744Z,32.65
2018-02-09T14:04:52.496Z,35.70
2018-02-09T14:07:22.350Z,33.47
2018-02-09T14:09:52.124Z,30.80
2018-02-09T14:12:21.992Z,34.75
2018-02-09T14:14:51.824Z,32.45
2018-02-09T14:17:21.720Z,32.80
2018-02-09T14:19:51.727Z,33.38
2018-02-09T14:22:21.514Z,31.95
2018-02-09T14:24:52.112Z,33.08
2018-02-09T14:27:21.978Z,33.88
2018-02-09T14:29:51.948Z,32.85
2018-02-09T14:32:22.470Z,33.75
2018-02-09T14:34:52.392Z,32.85
2018-02-09T14:37:22.156Z,33.13
2018-02-09T14:39:51.974Z,32.28
2018-02-09T14:42:21.828Z,32.78
2018-02-09T14:44:52.066Z,33.47
2018-02-09T14:47:22.671Z,30.33
2018-02-09T14:49:53.016Z,31.62
2018-02-09T14:52:23.942Z,31.58
2018-02-09T14:54:54.009Z,32.53
2018-02-09T14:57:23.894Z,32.08
2018-02-09T14:59:54.558Z,32.50
2018-02-09T15:02:24.483Z,32.42
2018-02-09T15:04:55.328Z,30.58
2018-02-09T15:07:25.920Z,29.70
2018-02-09T15:09:55.811Z,33.58
2018-02-09T15:12:25.611Z,31.33
2018-02-09T15:14:55.472Z,30.37
2018-02-09T15:17:25.452Z,30.25
2018-02-09T15:19:55.264Z,30.65
2018-02-09T15:22:25.026Z,31.75
2018-02-09T15:24:57.106Z,31.83
2018-02-09T15:27:27.031Z,31.90
2018-02-09T15:29:57.014Z,32.40
2018-02-09T15:32:27.204Z,32.60
2018-02-09T15:34:57.273Z,30.12
2018-02-09T15:37:28.335Z,30.27
2018-02-09T15:39:58.968Z,27.08
2018-02-09T15:42:29.694Z,27.65
2018-02-09T15:45:00.319Z,26.92
2018-02-09T15:47:31.986Z,24.33
2018-02-09T15:50:01.847Z,25.02
2018-02-09T15:52:32.082Z,26.27
2018-02-09T15:55:01.921Z,24.02
2018-02-09T15:57:31.815Z,25.02
2018-02-09T16:00:02.336Z,27.02
2018-02-09T16:02:32.211Z,26.10
2018-02-09T16:05:02.868Z,23.67
2018-02-09T16:07:32.910Z,23.05
2018-02-09T16:10:02.656Z,28.17
2018-02-09T16:12:34.642Z,21.25
2018-02-09T16:15:07.075Z,23.65
2018-02-09T16:17:36.814Z,23.20
2018-02-09T16:20:10.731Z,22.48
2018-02-09T16:22:40.524Z,23.05
2018-02-09T16:25:10.366Z,22.42
2018-02-09T16:27:40.989Z,22.20
2018-02-09T16:30:11.469Z,22.85
2018-02-09T16:32:41.216Z,22.02
2018-02-09T16:35:11.095Z,21.60
2018-02-09T16:37:41.267Z,26.70
2018-02-09T16:40:11.226Z,23.58
2018-02-09T16:42:41.126Z,21.20
2018-02-09T16:45:11.012Z,18.80
2018-02-09T16:47:42.101Z,26.87
2018-02-09T16:50:11.986Z,20.10
2018-02-09T16:52:43.258Z,27.50
2018-02-09T16:55:13.157Z,18.25
2018-02-09T16:57:44.208Z,19.00
2018-02-09T17:00:14.017Z,17.73
2018-02-09T17:02:44.351Z,18.25
2018-02-09T17:05:14.144Z,17.35
2018-02-09T17:07:44.869Z,18.48
2018-02-09T17:10:14.710Z,15.90
2018-02-09T17:12:45.617Z,18.45
2018-02-09T17:15:15.376Z,16.77
2018-02-09T17:17:52.095Z,16.65
2018-02-09T17:20:22.118Z,17.15
2018-02-09T17:22:51.800Z,15.02
2018-02-09T17:25:23.048Z,14.80
2018-02-09T17:27:53.458Z,13.07
2018-02-09T17:30:23.759Z,14.68
2018-02-09T17:32:53.463Z,14.43
2018-02-09T17:35:24.714Z,15.18
2018-02-09T17:37:54.442Z,14.98
2018-02-09T17:40:24.226Z,14.80
2018-02-09T17:42:53.943Z,15.00
2018-02-09T17:45:23.818Z,13.25
2018-02-09T17:47:53.592Z,13.45
2018-02-09T17:50:23.550Z,13.60
2018-02-09T17:52:53.999Z,13.18
2018-02-09T17:55:26.658Z,14.00
2018-02-09T17:57:57.814Z,14.40
2018-02-09T18:00:27.626Z,14.25
2018-02-09T18:03:00.412Z,13.93
2018-02-09T18:05:31.271Z,13.80
2018-02-09T18:08:01.556Z,12.85
2018-02-09T18:10:31.301Z,13.55
2018-02-09T18:13:01.119Z,12.32
2018-02-09T18:15:30.938Z,13.52
2018-02-09T18:18:00.820Z,12.77
2018-02-09T18:20:30.696Z,14.57
2018-02-09T18:23:00.450Z,13.32
2018-02-09T18:25:30.268Z,12.52
2018-02-09T18:28:04.958Z,13.95
2018-02-09T18:30:35.444Z,12.73
2018-02-09T18:33:05.453Z,12.50
2018-02-09T18:35:35.526Z,13.07
2018-02-09T18:38:05.253Z,13.20
2018-02-09T18:40:35.567Z,13.82
2018-02-09T18:43:05.242Z,21.42
2018-02-09T18:45:34.950Z,14.52
2018-02-09T18:48:05.432Z,12.65
2018-02-09T18:50:36.619Z,12.23
2018-02-09T18:53:06.352Z,11.97
2018-02-09T18:55:37.368Z,13.57
2018-02-09T18:58:07.899Z,13.23
2018-02-09T19:00:40.746Z,12.95
2018-02-09T19:03:10.481Z,11.18
2018-02-09T19:05:41.228Z,12.85
2018-02-09T19:08:12.550Z,12.30
2018-02-09T19:10:43.173Z,12.48
2018-02-09T19:13:13.141Z,12.98
2018-02-09T19:15:42.890Z,13.60
2018-02-09T19:18:13.296Z,12.23
2018-02-09T19:20:43.480Z,12.40
2018-02-09T19:23:13.553Z,11.80
2018-02-09T19:25:43.390Z,12.37
2018-02-09T19:28:17.360Z,12.40
2018-02-09T19:30:47.009Z,12.45
2018-02-09T19:33:16.888Z,12.07
2018-02-09T19:35:46.568Z,11.95
2018-02-09T19:38:19.349Z,12.00
2018-02-09T19:40:49.080Z,12.35
2018-02-09T19:43:18.792Z,12.80
2018-02-09T19:45:48.595Z,12.50
2018-02-09T19:48:18.351Z,12.43
2018-02-09T19:50:48.211Z,11.77
2018-02-09T19:53:17.827Z,11.48
2018-02-09T19:55:47.950Z,12.43
2018-02-09T19:58:18.820Z,11.93
2018-02-09T20:00:48.488Z,12.93
2018-02-09T20:03:18.490Z,11.75
2018-02-09T20:05:49.078Z,12.45
2018-02-09T20:08:18.895Z,11.80
2018-02-09T20:10:48.635Z,11.65
2018-02-09T20:13:19.209Z,12.32
2018-02-09T20:15:49.276Z,12.55
2018-02-09T20:18:21.134Z,14.13
2018-02-09T20:20:51.619Z,12.43
2018-02-09T20:23:21.327Z,12.57
2018-02-09T20:25:51.494Z,12.60
2018-02-09T20:28:21.360Z,11.82
2018-02-09T20:30:51.564Z,13.10
2018-02-09T20:33:21.317Z,12.55
2018-02-09T20:35:52.208Z,12.05
2018-02-09T20:38:21.902Z,12.43
2018-02-09T20:40:53.825Z,12.43
2018-02-09T20:43:23.649Z,12.32
2018-02-09T20:45:56.372Z,11.05
2018-02-09T20:48:26.078Z,10.80
2018-02-09T20:50:55.906Z,11.38
2018-02-09T20:53:25.585Z,10.10
2018-02-09T20:55:56.166Z,11.55
2018-02-09T20:58:25.950Z,10.23
2018-02-09T21:00:57.346Z,11.45
2018-02-09T21:03:27.945Z,12.25
2018-02-09T21:05:57.840Z,11.55
2018-02-09T21:08:27.685Z,11.27
2018-02-09T21:10:57.415Z,10.98
2018-02-09T21:13:27.111Z,10.90
2018-02-09T21:15:56.825Z,11.23
2018-02-09T21:18:26.613Z,10.25
2018-02-09T21:20:56.309Z,10.13
2018-02-09T21:23:26.204Z,10.63
2018-02-09T21:25:56.332Z,10.30
2018-02-09T21:28:26.192Z,10.52
2018-02-09T21:30:56.626Z,11.85
2018-02-09T21:33:27.176Z,11.55
2018-02-09T21:35:57.202Z,10.77
2018-02-09T21:38:27.002Z,10.55
2018-02-09T21:40:57.214Z,11.38
2018-02-09T21:43:27.845Z,11.77
2018-02-09T21:45:58.425Z,11.12
2018-02-09T21:48:32.339Z,12.15
2018-02-09T21:51:02.369Z,10.35
2018-02-09T21:53:32.023Z,13.00
2018-02-09T21:56:01.714Z,11.68
2018-02-09T21:58:32.242Z,10.50
2018-02-09T22:01:02.665Z,12.63
2018-02-09T22:03:33.142Z,12.77
2018-02-09T22:06:03.111Z,11.82
2018-02-09T22:08:33.643Z,12.10
2018-02-09T22:11:04.145Z,12.32
2018-02-09T22:13:33.967Z,11.57
2018-02-09T22:16:03.729Z,12.63
2018-02-09T22:18:33.412Z,11.55
2018-02-09T22:21:03.833Z,11.32
2018-02-09T22:23:34.423Z,11.48
2018-02-09T22:26:04.129Z,13.40
2018-02-09T22:28:33.805Z,13.05
2018-02-09T22:31:03.596Z,13.15
2018-02-09T22:33:34.006Z,13.23
2018-02-09T22:36:03.742Z,12.35
2018-02-09T22:38:33.597Z,12.00
2018-02-09T22:41:03.432Z,13.38
2018-02-09T22:43:33.149Z,12.70
2018-02-09T22:46:03.055Z,12.68
2018-02-09T22:48:32.689Z,12.77
2018-02-09T22:51:03.173Z,13.27
2018-02-09T22:53:32.869Z,13.07
2018-02-09T22:56:04.924Z,11.43
2018-02-09T22:58:34.756Z,11.60
2018-02-09T23:01:04.657Z,12.60
2018-02-09T23:03:35.781Z,13.73
2018-02-09T23:06:07.853Z,12.43
2018-02-09T23:08:37.654Z,11.85
2018-02-09T23:11:07.384Z,12.50
2018-02-09T23:13:38.299Z,14.75
2018-02-09T23:16:08.141Z,13.00
2018-02-09T23:18:37.863Z,13.48
2018-02-09T23:21:07.743Z,13.18
2018-02-09T23:23:37.521Z,11.43
2018-02-09T23:26:07.969Z,14.35
2018-02-09T23:28:37.734Z,13.85
2018-02-09T23:31:07.478Z,14.95
2018-02-09T23:33:38.043Z,13.02
2018-02-09T23:36:08.863Z,14.82
2018-02-09T23:38:38.621Z,11.90
2018-02-09T23:41:08.338Z,13.77
2018-02-09T23:43:38.542Z,13.18
2018-02-09T23:46:08.320Z,14.02
2018-02-09T23:48:38.183Z,14.02
2018-02-09T23:51:10.753Z,14.93
2018-02-09T23:53:40.494Z,14.95
2018-02-09T23:56:11.005Z,16.05
2018-02-09T23:58:41.216Z,14.98
